createdAt,value
2018-12-21T00:00:22.161Z,0.00
2018-12-21T00:01:22.142Z,0.00
2018-12-21T00:02:22.085Z,0.00
2018-12-21T00:03:22.048Z,0.00
2018-12-21T00:04:22.001Z,0.00
2018-12-21T00:05:21.977Z,0.00
2018-12-21T00:06:21.971Z,0.00
2018-12-21T00:07:21.923Z,0.00
2018-12-21T00:08:21.907Z,0.00
2018-12-21T00:09:21.815Z,0.00
2018-12-21T00:10:21.749Z,0.00
2018-12-21T00:11:21.705Z,0.00
2018-12-21T00:12:21.667Z,0.00
2018-12-21T00:13:21.618Z,0.00
2018-12-21T00:14:21.583Z,0.00
2018-12-21T00:15:21.540Z,0.00
2018-12-21T00:16:21.509Z,0.00
2018-12-21T00:17:21.527Z,0.00
2018-12-21T00:18:21.415Z,0.00
2018-12-21T00:19:21.378Z,0.00
2018-12-21T00:20:21.353Z,0.00
2018-12-21T00:21:21.950Z,0.00
2018-12-21T00:22:21.281Z,0.00
2018-12-21T00:23:21.331Z,0.00
2018-12-21T00:24:21.185Z,0.00
2018-12-21T00:25:21.128Z,0.00
2018-12-21T00:26:21.117Z,0.00
2018-12-21T00:27:21.071Z,0.00
2018-12-21T00:28:20.988Z,0.00
2018-12-21T00:29:20.969Z,0.00
2018-12-21T00:30:20.926Z,0.00
2018-12-21T00:31:20.872Z,0.00
2018-12-21T00:32:20.814Z,0.00
2018-12-21T00:33:20.830Z,0.00
2018-12-21T00:34:20.737Z,0.00
2018-12-21T00:35:20.699Z,0.00
2018-12-21T00:36:20.651Z,0.00
2018-12-21T00:37:20.613Z,0.00
2018-12-21T00:38:20.568Z,0.00
2018-12-21T00:39:20.518Z,0.00
2018-12-21T00:40:20.491Z,0.00
2018-12-21T00:41:20.471Z,0.00
2018-12-21T00:42:20.403Z,0.00
2018-12-21T00:43:20.366Z,0.00
2018-12-21T00:44:20.319Z,0.00
2018-12-21T00:45:20.277Z,0.00
2018-12-21T00:46:20.236Z,0.00
2018-12-21T00:47:20.222Z,0.00
2018-12-21T00:48:20.152Z,0.00
2018-12-21T00:49:20.151Z,0.00
2018-12-21T00:50:20.087Z,0.00
2018-12-21T00:51:20.030Z,0.00
2018-12-21T00:52:20.049Z,0.00
2018-12-21T00:53:19.923Z,0.00
2018-12-21T00:54:19.893Z,0.00
2018-12-21T00:55:19.854Z,0.00
2018-12-21T00:56:19.819Z,0.00
2018-12-21T00:57:19.779Z,0.00
2018-12-21T00:58:19.751Z,0.00
2018-12-21T00:59:19.713Z,0.00
2018-12-21T01:00:19.643Z,0.00
2018-12-21T01:01:19.621Z,0.00
2018-12-21T01:02:19.565Z,0.00
2018-12-21T01:03:19.510Z,0.00
2018-12-21T01:04:19.472Z,0.00
2018-12-21T01:05:19.446Z,0.00
2018-12-21T01:06:19.398Z,0.00
2018-12-21T01:07:19.352Z,0.00
2018-12-21T01:08:19.325Z,0.00
2018-12-21T01:09:19.268Z,0.00
2018-12-21T01:10:19.219Z,0.00
2018-12-21T01:11:19.188Z,0.00
2018-12-21T01:12:19.145Z,0.00
2018-12-21T01:13:19.102Z,0.00
2018-12-21T01:14:19.052Z,0.00
2018-12-21T01:15:19.016Z,0.00
2018-12-21T01:16:19.011Z,0.00
2018-12-21T01:17:18.926Z,0.00
2018-12-21T01:18:18.897Z,0.00
2018-12-21T01:19:18.869Z,0.00
2018-12-21T01:20:18.832Z,0.00
2018-12-21T01:21:18.764Z,0.00
2018-12-21T01:22:18.764Z,0.00
2018-12-21T01:23:18.702Z,0.00
2018-12-21T01:24:18.634Z,0.00
2018-12-21T01:25:18.597Z,0.00
2018-12-21T01:26:18.547Z,0.00
2018-12-21T01:27:18.546Z,0.00
2018-12-21T01:28:18.518Z,0.00
2018-12-21T01:29:18.433Z,0.00
2018-12-21T01:30:18.404Z,0.00
2018-12-21T01:31:18.354Z,0.00
2018-12-21T01:32:18.314Z,0.00
2018-12-21T01:33:18.270Z,0.00
2018-12-21T01:34:18.223Z,0.00
2018-12-21T01:35:18.179Z,0.00
2018-12-21T01:36:18.143Z,0.00
2018-12-21T01:37:18.093Z,0.00
2018-12-21T01:38:18.049Z,0.00
2018-12-21T01:39:18.033Z,0.00
2018-12-21T01:40:17.993Z,0.00
2018-12-21T01:41:17.963Z,0.00
2018-12-21T01:42:17.884Z,0.00
2018-12-21T01:43:17.867Z,0.00
2018-12-21T01:44:17.842Z,0.00
2018-12-21T01:45:17.772Z,0.00
2018-12-21T01:46:17.739Z,0.00
2018-12-21T01:47:17.673Z,0.00
2018-12-21T01:48:17.656Z,0.00
2018-12-21T01:49:17.620Z,0.00
2018-12-21T01:50:17.565Z,0.00
2018-12-21T01:51:17.545Z,0.00
2018-12-21T01:52:17.469Z,0.00
2018-12-21T01:53:17.420Z,0.00
2018-12-21T01:54:17.384Z,0.00
2018-12-21T01:55:17.359Z,0.00
2018-12-21T01:56:17.302Z,0.00
2018-12-21T01:57:17.258Z,0.00
2018-12-21T01:58:17.221Z,0.00
2018-12-21T01:59:17.210Z,0.00
2018-12-21T02:00:17.135Z,0.00
2018-12-21T02:01:17.101Z,0.00
2018-12-21T02:02:17.058Z,0.00
2018-12-21T02:03:17.008Z,0.00
2018-12-21T02:04:16.970Z,0.00
2018-12-21T02:05:16.928Z,0.00
2018-12-21T02:06:16.903Z,0.00
2018-12-21T02:07:16.861Z,0.00
2018-12-21T02:08:16.809Z,0.00
2018-12-21T02:09:16.766Z,0.00
2018-12-21T02:10:16.719Z,0.00
2018-12-21T02:11:16.706Z,0.00
2018-12-21T02:12:16.636Z,0.00
2018-12-21T02:13:31.188Z,0.00
2018-12-21T02:14:16.635Z,0.00
2018-12-21T02:15:16.572Z,0.00
2018-12-21T02:16:16.476Z,0.00
2018-12-21T02:17:16.490Z,0.00
2018-12-21T02:18:16.388Z,0.00
2018-12-21T02:19:16.354Z,0.00
2018-12-21T02:20:16.308Z,0.00
2018-12-21T02:21:16.266Z,0.00
2018-12-21T02:22:16.269Z,0.00
2018-12-21T02:23:37.180Z,0.00
2018-12-21T02:24:16.145Z,0.00
2018-12-21T02:25:16.106Z,0.00
2018-12-21T02:26:16.050Z,0.00
2018-12-21T02:27:16.009Z,0.00
2018-12-21T02:28:15.985Z,0.00
2018-12-21T02:29:15.934Z,0.00
2018-12-21T02:30:15.891Z,0.00
2018-12-21T02:31:15.856Z,0.00
2018-12-21T02:32:15.824Z,0.00
2018-12-21T02:33:15.754Z,0.00
2018-12-21T02:34:15.727Z,0.00
2018-12-21T02:35:15.676Z,0.00
2018-12-21T02:36:15.641Z,0.00
2018-12-21T02:37:15.594Z,0.00
2018-12-21T02:38:15.572Z,0.00
2018-12-21T02:39:15.507Z,0.00
2018-12-21T02:40:15.611Z,0.00
2018-12-21T02:41:15.422Z,0.00
2018-12-21T02:42:15.405Z,0.00
2018-12-21T02:43:15.336Z,0.00
2018-12-21T02:44:15.305Z,0.00
2018-12-21T02:45:15.285Z,0.00
2018-12-21T02:46:15.229Z,0.00
2018-12-21T02:47:15.172Z,0.00
2018-12-21T02:48:15.132Z,0.00
2018-12-21T02:49:15.104Z,0.00
2018-12-21T02:50:15.046Z,0.00
2018-12-21T02:51:15.012Z,0.00
2018-12-21T02:52:14.968Z,0.00
2018-12-21T02:53:14.936Z,0.00
2018-12-21T02:54:14.896Z,0.00
2018-12-21T02:55:14.870Z,0.00
2018-12-21T02:56:14.884Z,0.00
2018-12-21T02:57:14.788Z,0.00
2018-12-21T02:58:14.741Z,0.00
2018-12-21T02:59:14.674Z,0.00
2018-12-21T03:00:14.629Z,0.00
2018-12-21T03:01:14.635Z,0.00
2018-12-21T03:02:14.559Z,0.00
2018-12-21T03:03:14.531Z,0.00
2018-12-21T03:04:14.633Z,0.00
2018-12-21T03:05:14.450Z,0.00
2018-12-21T03:06:14.402Z,0.00
2018-12-21T03:07:14.344Z,0.00
2018-12-21T03:08:14.303Z,0.00
2018-12-21T03:09:14.255Z,0.00
2018-12-21T03:10:14.228Z,0.00
2018-12-21T03:11:14.203Z,0.00
2018-12-21T03:12:14.138Z,0.00
2018-12-21T03:13:14.100Z,0.00
2018-12-21T03:14:14.039Z,0.00
2018-12-21T03:15:14.035Z,0.00
2018-12-21T03:16:13.967Z,0.00
2018-12-21T03:17:13.933Z,0.00
2018-12-21T03:18:13.891Z,0.00
2018-12-21T03:19:13.845Z,0.00
2018-12-21T03:20:13.794Z,0.00
2018-12-21T03:21:13.750Z,0.00
2018-12-21T03:22:14.921Z,0.00
2018-12-21T03:23:13.662Z,0.00
2018-12-21T03:24:13.618Z,0.00
2018-12-21T03:25:13.583Z,0.00
2018-12-21T03:26:13.542Z,0.00
2018-12-21T03:27:13.509Z,0.00
2018-12-21T03:28:13.457Z,0.00
2018-12-21T03:29:13.436Z,0.00
2018-12-21T03:30:13.379Z,0.00
2018-12-21T03:31:13.346Z,0.00
2018-12-21T03:32:13.296Z,0.00
2018-12-21T03:33:13.285Z,0.00
2018-12-21T03:34:13.232Z,0.00
2018-12-21T03:35:13.188Z,0.00
2018-12-21T03:36:13.128Z,0.00
2018-12-21T03:37:13.201Z,0.00
2018-12-21T03:38:13.040Z,0.00
2018-12-21T03:39:13.005Z,0.00
2018-12-21T03:40:12.986Z,0.00
2018-12-21T03:41:12.936Z,0.00
2018-12-21T03:42:12.883Z,0.00
2018-12-21T03:43:12.895Z,0.00
2018-12-21T03:44:12.802Z,0.00
2018-12-21T03:45:12.743Z,0.00
2018-12-21T03:46:12.707Z,0.00
2018-12-21T03:47:12.680Z,0.00
2018-12-21T03:48:12.657Z,0.00
2018-12-21T03:49:12.578Z,0.00
2018-12-21T03:50:12.551Z,0.00
2018-12-21T03:51:12.499Z,0.00
2018-12-21T03:52:12.456Z,0.00
2018-12-21T03:53:12.411Z,0.00
2018-12-21T03:54:12.392Z,0.00
2018-12-21T03:55:12.331Z,0.00
2018-12-21T03:56:12.281Z,0.00
2018-12-21T03:57:12.232Z,0.00
2018-12-21T03:58:12.209Z,0.00
2018-12-21T03:59:12.169Z,0.00
2018-12-21T04:00:12.217Z,0.00
2018-12-21T04:01:12.082Z,0.00
2018-12-21T04:02:12.029Z,0.00
2018-12-21T04:03:12.002Z,0.00
2018-12-21T04:04:12.087Z,0.00
2018-12-21T04:05:11.927Z,0.00
2018-12-21T04:06:11.986Z,0.00
2018-12-21T04:07:11.822Z,0.00
2018-12-21T04:08:11.790Z,0.00
2018-12-21T04:09:11.750Z,0.00
2018-12-21T04:10:11.702Z,0.00
2018-12-21T04:11:11.682Z,0.00
2018-12-21T04:12:11.625Z,0.00
2018-12-21T04:13:11.626Z,0.00
2018-12-21T04:14:11.540Z,0.00
2018-12-21T04:15:11.500Z,0.00
2018-12-21T04:16:11.458Z,0.00
2018-12-21T04:17:11.432Z,0.00
2018-12-21T04:18:11.361Z,0.00
2018-12-21T04:19:11.322Z,0.00
2018-12-21T04:20:11.298Z,0.00
2018-12-21T04:21:11.255Z,0.00
2018-12-21T04:22:11.221Z,0.00
2018-12-21T04:23:11.216Z,0.00
2018-12-21T04:24:11.155Z,0.00
2018-12-21T04:25:11.072Z,0.00
2018-12-21T04:26:11.047Z,0.00
2018-12-21T04:27:11.115Z,0.00
2018-12-21T04:28:11.072Z,0.00
2018-12-21T04:29:11.128Z,0.00
2018-12-21T04:30:11.024Z,0.00
2018-12-21T04:31:10.821Z,0.00
2018-12-21T04:32:10.779Z,0.00
2018-12-21T04:33:10.737Z,0.00
2018-12-21T04:34:10.701Z,0.00
2018-12-21T04:35:10.649Z,0.00
2018-12-21T04:36:10.612Z,0.00
2018-12-21T04:37:10.609Z,0.00
2018-12-21T04:38:10.595Z,0.00
2018-12-21T04:39:10.506Z,0.00
2018-12-21T04:40:10.447Z,0.00
2018-12-21T04:41:10.414Z,0.00
2018-12-21T04:42:10.377Z,0.00
2018-12-21T04:43:10.316Z,0.00
2018-12-21T04:44:10.306Z,0.00
2018-12-21T04:45:10.254Z,0.00
2018-12-21T04:46:10.198Z,0.00
2018-12-21T04:47:10.160Z,0.00
2018-12-21T04:48:10.163Z,0.00
2018-12-21T04:49:10.098Z,0.00
2018-12-21T04:50:10.039Z,0.00
2018-12-21T04:51:09.989Z,0.00
2018-12-21T04:52:09.965Z,0.00
2018-12-21T04:53:09.917Z,0.00
2018-12-21T04:54:09.866Z,0.00
2018-12-21T04:55:09.840Z,0.00
2018-12-21T04:56:09.777Z,0.00
2018-12-21T04:57:09.734Z,0.00
2018-12-21T04:58:09.734Z,0.00
2018-12-21T04:59:09.884Z,0.00
2018-12-21T05:00:09.625Z,0.00
2018-12-21T05:01:09.596Z,0.00
2018-12-21T05:02:09.539Z,0.00
2018-12-21T05:03:09.479Z,0.00
2018-12-21T05:04:09.433Z,0.00
2018-12-21T05:05:09.388Z,0.00
2018-12-21T05:06:09.390Z,0.00
2018-12-21T05:07:12.541Z,0.00
2018-12-21T05:08:09.384Z,0.00
2018-12-21T05:09:09.256Z,0.00
2018-12-21T05:10:09.205Z,0.00
2018-12-21T05:11:09.149Z,0.00
2018-12-21T05:12:09.112Z,0.00
2018-12-21T05:13:09.072Z,0.00
2018-12-21T05:14:09.024Z,0.00
2018-12-21T05:15:08.972Z,0.00
2018-12-21T05:16:08.934Z,0.00
2018-12-21T05:17:08.903Z,0.00
2018-12-21T05:18:08.851Z,0.00
2018-12-21T05:19:08.815Z,0.00
2018-12-21T05:20:08.762Z,0.00
2018-12-21T05:21:08.725Z,0.00
2018-12-21T05:22:08.697Z,0.00
2018-12-21T05:23:08.666Z,0.00
2018-12-21T05:24:08.659Z,0.00
2018-12-21T05:25:08.559Z,0.00
2018-12-21T05:26:08.537Z,0.00
2018-12-21T05:27:08.468Z,0.00
2018-12-21T05:28:08.472Z,0.00
2018-12-21T05:29:08.407Z,0.00
2018-12-21T05:30:08.360Z,0.00
2018-12-21T05:31:08.306Z,0.00
2018-12-21T05:32:08.295Z,0.00
2018-12-21T05:33:08.228Z,0.00
2018-12-21T05:34:08.182Z,0.00
2018-12-21T05:35:08.201Z,0.00
2018-12-21T05:36:08.144Z,0.00
2018-12-21T05:37:08.152Z,0.00
2018-12-21T05:38:08.023Z,0.00
2018-12-21T05:39:07.968Z,0.00
2018-12-21T05:40:07.964Z,0.00
2018-12-21T05:41:07.877Z,0.00
2018-12-21T05:42:07.843Z,0.00
2018-12-21T05:43:07.796Z,0.00
2018-12-21T05:44:07.756Z,0.00
2018-12-21T05:45:07.717Z,0.00
2018-12-21T05:46:07.676Z,0.00
2018-12-21T05:47:07.630Z,0.00
2018-12-21T05:48:07.592Z,0.00
2018-12-21T05:49:07.555Z,0.00
2018-12-21T05:50:07.510Z,0.00
2018-12-21T05:51:07.465Z,0.00
2018-12-21T05:52:07.423Z,0.00
2018-12-21T05:53:07.392Z,0.00
2018-12-21T05:54:07.339Z,0.00
2018-12-21T05:55:07.305Z,0.00
2018-12-21T05:56:07.275Z,0.00
2018-12-21T05:57:07.209Z,0.00
2018-12-21T05:58:07.164Z,0.00
2018-12-21T05:59:07.133Z,0.00
2018-12-21T06:00:07.087Z,0.00
2018-12-21T06:01:07.050Z,0.00
2018-12-21T06:02:06.994Z,0.00
2018-12-21T06:03:07.026Z,0.00
2018-12-21T06:04:06.910Z,0.00
2018-12-21T06:05:06.897Z,0.00
2018-12-21T06:06:06.840Z,0.00
2018-12-21T06:07:06.791Z,0.00
2018-12-21T06:08:06.761Z,0.00
2018-12-21T06:09:06.722Z,0.00
2018-12-21T06:10:06.694Z,0.00
2018-12-21T06:11:06.662Z,0.00
2018-12-21T06:12:06.592Z,0.00
2018-12-21T06:13:06.534Z,0.00
2018-12-21T06:14:06.503Z,0.00
2018-12-21T06:15:06.464Z,0.00
2018-12-21T06:16:06.419Z,0.00
2018-12-21T06:17:06.383Z,0.00
2018-12-21T06:18:06.330Z,0.00
2018-12-21T06:19:06.340Z,0.00
2018-12-21T06:20:06.245Z,0.00
2018-12-21T06:21:06.195Z,0.00
2018-12-21T06:22:06.165Z,0.00
2018-12-21T06:23:09.609Z,0.00
2018-12-21T06:24:06.092Z,0.00
2018-12-21T06:25:06.071Z,0.00
2018-12-21T06:26:06.027Z,0.00
2018-12-21T06:27:05.944Z,0.00
2018-12-21T06:28:05.904Z,0.00
2018-12-21T06:29:05.869Z,0.00
2018-12-21T06:30:05.822Z,0.00
2018-12-21T06:31:05.803Z,0.00
2018-12-21T06:32:05.909Z,0.00
2018-12-21T06:33:05.731Z,0.00
2018-12-21T06:34:05.706Z,0.00
2018-12-21T06:35:05.621Z,0.00
2018-12-21T06:36:05.611Z,0.00
2018-12-21T06:37:05.567Z,0.00
2018-12-21T06:38:05.559Z,0.00
2018-12-21T06:39:05.549Z,0.00
2018-12-21T06:40:05.432Z,0.00
2018-12-21T06:41:05.397Z,0.00
2018-12-21T06:42:05.320Z,0.00
2018-12-21T06:43:05.293Z,0.00
2018-12-21T06:44:05.257Z,4.00
2018-12-21T06:45:05.205Z,4.00
2018-12-21T06:46:05.178Z,8.00
2018-12-21T06:47:05.130Z,4.00
2018-12-21T06:48:05.089Z,8.00
2018-12-21T06:49:05.086Z,8.00
2018-12-21T06:50:05.016Z,12.00
2018-12-21T06:51:04.943Z,12.00
2018-12-21T06:52:04.911Z,16.00
2018-12-21T06:53:04.882Z,20.00
2018-12-21T06:54:04.847Z,24.00
2018-12-21T06:55:04.782Z,28.00
2018-12-21T06:56:04.745Z,32.00
2018-12-21T06:57:04.699Z,36.00
2018-12-21T06:58:04.658Z,40.00
2018-12-21T06:59:04.626Z,44.00
2018-12-21T07:00:04.645Z,52.00
2018-12-21T07:01:04.556Z,56.00
2018-12-21T07:02:04.523Z,68.00
2018-12-21T07:03:04.467Z,84.00
2018-12-21T07:04:04.414Z,104.00
2018-12-21T07:05:04.404Z,116.00
2018-12-21T07:06:04.327Z,132.00
2018-12-21T07:07:04.280Z,144.00
2018-12-21T07:08:04.241Z,148.00
2018-12-21T07:09:04.204Z,160.00
2018-12-21T07:10:04.283Z,184.00
2018-12-21T07:11:04.149Z,200.00
2018-12-21T07:12:04.183Z,216.00
2018-12-21T07:13:04.060Z,224.00
2018-12-21T07:14:03.998Z,244.00
2018-12-21T07:15:03.961Z,260.00
2018-12-21T07:16:03.906Z,276.00
2018-12-21T07:17:03.865Z,284.00
2018-12-21T07:18:03.838Z,296.00
2018-12-21T07:19:03.817Z,300.00
2018-12-21T07:20:03.764Z,324.00
2018-12-21T07:21:03.727Z,348.00
2018-12-21T07:22:03.685Z,368.00
2018-12-21T07:23:03.641Z,388.00
2018-12-21T07:24:03.574Z,408.00
2018-12-21T07:25:03.561Z,416.00
2018-12-21T07:26:03.505Z,452.00
2018-12-21T07:27:03.447Z,504.00
2018-12-21T07:28:03.408Z,544.00
2018-12-21T07:29:03.390Z,576.00
2018-12-21T07:30:03.365Z,616.00
2018-12-21T07:31:03.284Z,664.00
2018-12-21T07:32:03.256Z,704.00
2018-12-21T07:33:03.199Z,740.00
2018-12-21T07:34:03.166Z,772.00
2018-12-21T07:35:03.135Z,792.00
2018-12-21T07:36:08.391Z,804.00
2018-12-21T07:37:03.031Z,816.00
2018-12-21T07:38:02.995Z,820.00
2018-12-21T07:39:02.946Z,824.00
2018-12-21T07:40:02.932Z,820.00
2018-12-21T07:41:02.868Z,824.00
2018-12-21T07:42:02.829Z,824.00
2018-12-21T07:43:02.798Z,832.00
2018-12-21T07:44:02.733Z,844.00
2018-12-21T07:45:02.704Z,860.00
2018-12-21T07:46:02.661Z,876.00
2018-12-21T07:47:02.622Z,900.00
2018-12-21T07:48:02.571Z,924.00
2018-12-21T07:49:02.536Z,944.00
2018-12-21T07:50:02.535Z,968.00
2018-12-21T07:51:02.464Z,988.00
2018-12-21T07:52:02.402Z,1012.00
2018-12-21T07:53:02.387Z,1040.00
2018-12-21T07:54:02.321Z,1092.00
2018-12-21T07:55:02.287Z,1172.00
2018-12-21T07:56:02.256Z,1280.00
2018-12-21T07:57:02.202Z,1404.00
2018-12-21T07:58:02.166Z,1540.00
2018-12-21T07:59:02.120Z,1656.00
2018-12-21T08:00:02.085Z,1748.00
2018-12-21T08:01:02.050Z,1808.00
2018-12-21T08:02:01.982Z,1848.00
2018-12-21T08:03:01.973Z,1880.00
2018-12-21T08:04:01.930Z,1896.00
2018-12-21T08:05:01.873Z,1888.00
2018-12-21T08:06:01.830Z,1912.00
2018-12-21T08:07:01.789Z,1980.00
2018-12-21T08:08:01.742Z,1992.00
2018-12-21T08:09:01.699Z,2008.00
2018-12-21T08:10:01.688Z,2060.00
2018-12-21T08:11:01.631Z,2112.00
2018-12-21T08:12:01.573Z,2208.00
2018-12-21T08:13:01.530Z,2340.00
2018-12-21T08:14:01.499Z,2520.00
2018-12-21T08:15:01.449Z,2732.00
2018-12-21T08:16:01.405Z,2944.00
2018-12-21T08:17:01.380Z,3120.00
2018-12-21T08:18:01.419Z,3284.00
2018-12-21T08:19:01.296Z,3424.00
2018-12-21T08:20:01.308Z,3532.00
2018-12-21T08:21:01.201Z,3604.00
2018-12-21T08:22:01.229Z,3680.00
2018-12-21T08:23:01.118Z,3740.00
2018-12-21T08:24:01.062Z,3760.00
2018-12-21T08:25:01.033Z,3760.00
2018-12-21T08:26:01.030Z,3732.00
2018-12-21T08:27:00.981Z,3700.00
2018-12-21T08:28:00.898Z,3672.00
2018-12-21T08:29:00.874Z,3636.00
2018-12-21T08:30:00.829Z,3600.00
2018-12-21T08:31:00.799Z,3580.00
2018-12-21T08:32:01.698Z,3576.00
2018-12-21T08:33:00.705Z,3476.00
2018-12-21T08:34:00.644Z,3368.00
2018-12-21T08:35:00.622Z,3288.00
2018-12-21T08:36:00.563Z,3276.00
2018-12-21T08:37:00.525Z,3376.00
2018-12-21T08:38:00.490Z,3536.00
2018-12-21T08:39:00.442Z,3680.00
2018-12-21T08:40:00.397Z,3808.00
2018-12-21T08:41:00.351Z,3876.00
2018-12-21T08:42:00.299Z,3952.00
2018-12-21T08:43:00.276Z,3952.00
2018-12-21T08:44:00.235Z,3852.00
2018-12-21T08:45:00.179Z,3732.00
2018-12-21T08:46:00.147Z,3656.00
2018-12-21T08:47:00.120Z,3664.00
2018-12-21T08:48:00.075Z,3764.00
2018-12-21T08:49:00.015Z,3988.00
2018-12-21T08:50:00.003Z,4224.00
2018-12-21T08:50:59.950Z,4260.00
2018-12-21T08:51:59.915Z,4272.00
2018-12-21T08:52:59.849Z,4232.00
2018-12-21T08:53:59.816Z,4192.00
2018-12-21T08:54:59.795Z,4200.00
2018-12-21T08:55:59.716Z,4160.00
2018-12-21T08:56:59.698Z,4108.00
2018-12-21T08:57:59.685Z,4020.00
2018-12-21T08:58:59.598Z,3892.00
2018-12-21T08:59:59.544Z,3788.00
2018-12-21T09:00:59.511Z,3696.00
2018-12-21T09:01:59.478Z,3584.00
2018-12-21T09:02:59.417Z,3424.00
2018-12-21T09:03:59.389Z,3232.00
2018-12-21T09:04:59.374Z,3308.00
2018-12-21T09:05:59.337Z,3356.00
2018-12-21T09:06:59.269Z,3492.00
2018-12-21T09:07:59.206Z,3416.00
2018-12-21T09:08:59.197Z,3268.00
2018-12-21T09:09:59.158Z,3248.00
2018-12-21T09:10:59.137Z,2928.00
2018-12-21T09:11:59.056Z,2856.00
2018-12-21T09:12:59.010Z,2788.00
2018-12-21T09:13:58.976Z,2452.00
2018-12-21T09:14:58.922Z,2156.00
2018-12-21T09:15:58.915Z,2152.00
2018-12-21T09:16:58.878Z,2360.00
2018-12-21T09:17:58.854Z,2500.00
2018-12-21T09:18:58.803Z,2540.00
2018-12-21T09:19:58.712Z,2588.00
2018-12-21T09:20:58.689Z,2556.00
2018-12-21T09:21:58.640Z,2500.00
2018-12-21T09:22:58.649Z,2512.00
2018-12-21T09:24:01.224Z,2544.00
2018-12-21T09:24:58.527Z,2652.00
2018-12-21T09:25:58.509Z,2840.00
2018-12-21T09:26:58.421Z,2956.00
2018-12-21T09:27:58.403Z,2992.00
2018-12-21T09:28:58.335Z,2976.00
2018-12-21T09:29:58.304Z,2944.00
2018-12-21T09:30:58.303Z,2944.00
2018-12-21T09:32:05.020Z,3048.00
2018-12-21T09:32:58.180Z,3104.00
2018-12-21T09:33:58.180Z,3120.00
2018-12-21T09:34:58.128Z,3032.00
2018-12-21T09:35:58.063Z,3000.00
2018-12-21T09:36:58.022Z,2932.00
2018-12-21T09:37:57.978Z,2892.00
2018-12-21T09:38:57.963Z,2888.00
2018-12-21T09:39:57.890Z,2940.00
2018-12-21T09:40:57.835Z,3056.00
2018-12-21T09:41:57.823Z,3240.00
2018-12-21T09:42:57.745Z,3332.00
2018-12-21T09:43:57.816Z,3228.00
2018-12-21T09:44:57.665Z,3028.00
2018-12-21T09:45:57.649Z,3064.00
2018-12-21T09:46:57.594Z,3184.00
2018-12-21T09:47:57.537Z,3200.00
2018-12-21T09:48:57.517Z,3360.00
2018-12-21T09:49:57.445Z,3568.00
2018-12-21T09:50:57.455Z,3796.00
2018-12-21T09:51:57.407Z,4356.00
2018-12-21T09:52:57.386Z,4892.00
2018-12-21T09:53:57.313Z,5236.00
2018-12-21T09:54:57.466Z,5296.00
2018-12-21T09:55:57.240Z,5304.00
2018-12-21T09:56:57.166Z,5348.00
2018-12-21T09:57:57.275Z,5412.00
2018-12-21T09:58:57.090Z,5472.00
2018-12-21T09:59:57.082Z,5576.00
2018-12-21T10:00:57.071Z,5544.00
2018-12-21T10:01:56.980Z,5388.00
2018-12-21T10:02:56.931Z,5264.00
2018-12-21T10:03:56.900Z,5076.00
2018-12-21T10:04:56.883Z,4932.00
2018-12-21T10:05:56.780Z,4916.00
2018-12-21T10:06:56.766Z,4972.00
2018-12-21T10:07:56.734Z,4936.00
2018-12-21T10:08:56.673Z,4744.00
2018-12-21T10:09:56.618Z,4352.00
2018-12-21T10:10:56.574Z,4180.00
2018-12-21T10:11:56.639Z,4556.00
2018-12-21T10:12:56.501Z,4988.00
2018-12-21T10:13:56.451Z,5404.00
2018-12-21T10:14:56.435Z,5704.00
2018-12-21T10:15:56.354Z,6032.00
2018-12-21T10:16:56.328Z,6284.00
2018-12-21T10:17:56.276Z,6648.00
2018-12-21T10:18:56.259Z,6788.00
2018-12-21T10:19:56.212Z,6700.00
2018-12-21T10:20:56.162Z,6428.00
2018-12-21T10:21:56.125Z,6128.00
2018-12-21T10:22:56.101Z,5788.00
2018-12-21T10:23:56.052Z,5544.00
2018-12-21T10:24:56.004Z,5464.00
2018-12-21T10:25:55.967Z,5404.00
2018-12-21T10:26:55.941Z,5308.00
2018-12-21T10:27:55.878Z,5172.00
2018-12-21T10:28:55.852Z,5040.00
2018-12-21T10:29:55.793Z,4976.00
2018-12-21T10:30:55.750Z,4888.00
2018-12-21T10:31:55.719Z,4824.00
2018-12-21T10:32:55.667Z,4872.00
2018-12-21T10:33:55.614Z,4988.00
2018-12-21T10:34:55.588Z,5072.00
2018-12-21T10:35:55.562Z,5136.00
2018-12-21T10:36:55.513Z,5172.00
2018-12-21T10:37:55.449Z,5240.00
2018-12-21T10:38:55.417Z,5388.00
2018-12-21T10:39:55.352Z,5540.00
2018-12-21T10:40:55.374Z,5576.00
2018-12-21T10:41:55.279Z,5528.00
2018-12-21T10:42:55.241Z,5432.00
2018-12-21T10:43:55.210Z,5320.00
2018-12-21T10:44:55.153Z,5164.00
2018-12-21T10:45:55.122Z,5016.00
2018-12-21T10:46:55.087Z,4916.00
2018-12-21T10:47:55.072Z,4864.00
2018-12-21T10:48:54.971Z,4816.00
2018-12-21T10:49:54.975Z,4752.00
2018-12-21T10:50:54.931Z,4624.00
2018-12-21T10:51:54.884Z,4424.00
2018-12-21T10:52:54.829Z,4280.00
2018-12-21T10:53:54.793Z,4164.00
2018-12-21T10:54:54.760Z,3968.00
2018-12-21T10:55:54.739Z,3748.00
2018-12-21T10:56:54.650Z,3636.00
2018-12-21T10:57:54.660Z,3600.00
2018-12-21T10:58:54.591Z,3564.00
2018-12-21T10:59:54.650Z,3472.00
2018-12-21T11:00:54.534Z,3384.00
2018-12-21T11:01:54.461Z,3340.00
2018-12-21T11:02:54.405Z,3348.00
2018-12-21T11:03:54.398Z,3416.00
2018-12-21T11:04:54.320Z,3484.00
2018-12-21T11:05:54.290Z,3496.00
2018-12-21T11:06:54.243Z,3560.00
2018-12-21T11:07:54.221Z,3640.00
2018-12-21T11:08:54.156Z,3660.00
2018-12-21T11:09:54.132Z,3604.00
2018-12-21T11:10:54.079Z,3464.00
2018-12-21T11:11:54.028Z,3268.00
2018-12-21T11:12:54.017Z,3200.00
2018-12-21T11:13:54.010Z,3224.00
2018-12-21T11:14:53.922Z,3244.00
2018-12-21T11:15:53.862Z,3224.00
2018-12-21T11:16:53.825Z,3200.00
2018-12-21T11:17:53.847Z,3168.00
2018-12-21T11:18:53.740Z,3128.00
2018-12-21T11:19:53.699Z,3176.00
2018-12-21T11:20:53.657Z,3380.00
2018-12-21T11:21:53.607Z,3552.00
2018-12-21T11:22:53.611Z,3856.00
2018-12-21T11:23:53.580Z,4112.00
2018-12-21T11:24:53.607Z,3932.00
2018-12-21T11:25:53.444Z,3592.00
2018-12-21T11:26:53.421Z,3492.00
2018-12-21T11:27:53.450Z,3400.00
2018-12-21T11:28:53.357Z,3304.00
2018-12-21T11:29:53.272Z,3320.00
2018-12-21T11:30:53.241Z,3536.00
2018-12-21T11:31:53.206Z,3788.00
2018-12-21T11:32:53.157Z,4128.00
2018-12-21T11:33:53.126Z,4568.00
2018-12-21T11:34:54.924Z,4756.00
2018-12-21T11:35:53.021Z,4608.00
2018-12-21T11:36:52.982Z,4684.00
2018-12-21T11:37:52.942Z,4488.00
2018-12-21T11:38:52.900Z,4088.00
2018-12-21T11:39:52.890Z,4012.00
2018-12-21T11:40:52.832Z,4260.00
2018-12-21T11:41:52.813Z,4440.00
2018-12-21T11:42:52.753Z,4688.00
2018-12-21T11:43:52.731Z,5160.00
2018-12-21T11:44:52.714Z,5568.00
2018-12-21T11:45:52.622Z,6052.00
2018-12-21T11:46:52.618Z,5760.00
2018-12-21T11:47:52.634Z,5904.00
2018-12-21T11:48:53.747Z,6240.00
2018-12-21T11:49:52.467Z,6276.00
2018-12-21T11:50:52.405Z,6836.00
2018-12-21T11:51:52.445Z,7940.00
2018-12-21T11:52:52.330Z,8004.00
2018-12-21T11:53:52.330Z,7944.00
2018-12-21T11:54:52.263Z,7772.00
2018-12-21T11:55:52.191Z,7204.00
2018-12-21T11:56:52.171Z,6524.00
2018-12-21T11:57:52.135Z,6264.00
2018-12-21T11:58:52.120Z,6568.00
2018-12-21T11:59:52.063Z,6800.00
2018-12-21T12:00:52.015Z,6784.00
2018-12-21T12:01:51.997Z,6680.00
2018-12-21T12:02:51.907Z,6532.00
2018-12-21T12:03:51.979Z,6216.00
2018-12-21T12:04:51.858Z,6224.00
2018-12-21T12:05:51.873Z,6316.00
2018-12-21T12:06:51.778Z,6632.00
2018-12-21T12:07:51.732Z,7076.00
2018-12-21T12:08:51.683Z,7676.00
2018-12-21T12:09:51.630Z,7880.00
2018-12-21T12:10:51.645Z,7868.00
2018-12-21T12:11:51.550Z,7132.00
2018-12-21T12:12:51.506Z,6260.00
2018-12-21T12:13:51.506Z,5676.00
2018-12-21T12:14:51.433Z,5176.00
2018-12-21T12:15:51.407Z,4952.00
2018-12-21T12:16:51.362Z,4512.00
2018-12-21T12:17:51.313Z,4156.00
2018-12-21T12:18:51.287Z,3968.00
2018-12-21T12:19:51.318Z,3948.00
2018-12-21T12:20:51.185Z,3712.00
2018-12-21T12:21:51.123Z,3632.00
2018-12-21T12:22:51.102Z,3616.00
2018-12-21T12:23:51.046Z,3464.00
2018-12-21T12:24:52.887Z,3380.00
2018-12-21T12:25:50.972Z,3480.00
2018-12-21T12:26:50.943Z,3568.00
2018-12-21T12:27:50.944Z,3584.00
2018-12-21T12:28:50.889Z,3484.00
2018-12-21T12:29:50.839Z,3484.00
2018-12-21T12:30:50.796Z,3364.00
2018-12-21T12:31:50.730Z,3220.00
2018-12-21T12:32:50.922Z,3084.00
2018-12-21T12:33:50.645Z,2804.00
2018-12-21T12:34:50.602Z,2768.00
2018-12-21T12:35:50.672Z,2656.00
2018-12-21T12:36:50.518Z,2772.00
2018-12-21T12:37:50.507Z,3164.00
2018-12-21T12:38:50.549Z,3504.00
2018-12-21T12:39:50.413Z,4000.00
2018-12-21T12:40:50.354Z,4948.00
2018-12-21T12:41:50.318Z,5680.00
2018-12-21T12:42:50.267Z,5628.00
2018-12-21T12:43:50.229Z,5664.00
2018-12-21T12:44:50.221Z,5612.00